Map

Track Data

SID SEASON NUMBER BASIN SUBBASIN NAME ISO_TIME NATURE LAT LON WMO_WIND WMO_PRES WMO_AGENCY TRACK_TYPE DIST2LAND LANDFALL IFLAG USA_AGENCY USA_ATCF_ID USA_LAT USA_LON USA_RECORD USA_STATUS USA_WIND USA_PRES USA_SSHS USA_R34_NE USA_R34_SE USA_R34_SW USA_R34_NW USA_R50_NE USA_R50_SE USA_R50_SW USA_R50_NW USA_R64_NE USA_R64_SE USA_R64_SW USA_R64_NW USA_POCI USA_ROCI USA_RMW USA_EYE TOKYO_LAT TOKYO_LON TOKYO_GRADE TOKYO_WIND TOKYO_PRES TOKYO_R50_DIR TOKYO_R50_LONG TOKYO_R50_SHORT TOKYO_R30_DIR TOKYO_R30_LONG TOKYO_R30_SHORT TOKYO_LAND CMA_LAT CMA_LON CMA_CAT CMA_WIND CMA_PRES HKO_LAT HKO_LON HKO_CAT HKO_WIND HKO_PRES NEWDELHI_LAT NEWDELHI_LON NEWDELHI_GRADE NEWDELHI_WIND NEWDELHI_PRES NEWDELHI_CI NEWDELHI_DP NEWDELHI_POCI REUNION_LAT REUNION_LON REUNION_TYPE REUNION_WIND REUNION_PRES REUNION_TNUM REUNION_CI REUNION_RMW REUNION_R34_NE REUNION_R34_SE REUNION_R34_SW REUNION_R34_NW REUNION_R50_NE REUNION_R50_SE REUNION_R50_SW REUNION_R50_NW REUNION_R64_NE REUNION_R64_SE REUNION_R64_SW REUNION_R64_NW BOM_LAT BOM_LON BOM_TYPE BOM_WIND BOM_PRES BOM_TNUM BOM_CI BOM_RMW BOM_R34_NE BOM_R34_SE BOM_R34_SW BOM_R34_NW BOM_R50_NE BOM_R50_SE BOM_R50_SW BOM_R50_NW BOM_R64_NE BOM_R64_SE BOM_R64_SW BOM_R64_NW BOM_ROCI BOM_POCI BOM_EYE BOM_POS_METHOD BOM_PRES_METHOD NADI_LAT NADI_LON NADI_CAT NADI_WIND NADI_PRES WELLINGTON_LAT WELLINGTON_LON WELLINGTON_WIND WELLINGTON_PRES DS824_LAT DS824_LON DS824_STAGE DS824_WIND DS824_PRES TD9636_LAT TD9636_LON TD9636_STAGE TD9636_WIND TD9636_PRES TD9635_LAT TD9635_LON TD9635_WIND TD9635_PRES TD9635_ROCI NEUMANN_LAT NEUMANN_LON NEUMANN_CLASS NEUMANN_WIND NEUMANN_PRES MLC_LAT MLC_LON MLC_CLASS MLC_WIND MLC_PRES USA_GUST BOM_GUST BOM_GUST_PER REUNION_GUST REUNION_GUST_PER USA_SEAHGT USA_SEARAD_NE USA_SEARAD_SE USA_SEARAD_SW USA_SEARAD_NW STORM_SPEED STORM_DIR
1928290N14139 1928 60 WP MM NOT_NAMED 1928-10-15 21:00:00 NR 13.9000 138.800 main 1448 1405 __________O___ -1 13.9000 138.800 2 15 311
1928290N14139 1928 60 WP MM NOT_NAMED 1928-10-16 00:00:00 NR 14.3861 138.229 main 1396 1351 __________P___ -1 14.3861 138.229 2 15 311
1928290N14139 1928 60 WP MM NOT_NAMED 1928-10-16 03:00:00 NR 14.8773 137.645 main 1342 1300 __________P___ -1 14.8773 137.645 2 15 311
1928290N14139 1928 60 WP MM NOT_NAMED 1928-10-16 06:00:00 NR 15.3799 137.039 main 1292 1246 __________P___ -1 15.3799 137.039 2 16 310
1928290N14139 1928 60 WP MM NOT_NAMED 1928-10-16 09:00:00 NR 15.9000 136.400 main 1246 1205 __________O___ -1 15.9000 136.400 2 17 310
1928290N14139 1928 60 WP MM NOT_NAMED 1928-10-16 12:00:00 NR 16.4503 135.729 main 1199 1164 __________P___ -1 16.4503 135.729 2 17 313
1928290N14139 1928 60 WP MM NOT_NAMED 1928-10-16 15:00:00 NR 17.0694 135.080 main 1169 1149 __________P___ -1 17.0694 135.080 2 18 319
1928290N14139 1928 60 WP MM NOT_NAMED 1928-10-16 18:00:00 NR 17.8036 134.515 main 1152 1148 __________P___ -1 17.8036 134.515 2 19 330
1928290N14139 1928 60 WP MM NOT_NAMED 1928-10-16 21:00:00 NR 18.7000 134.100 main 1166 1166 __________O___ -1 18.7000 134.100 2 21 341
1928290N14139 1928 60 WP MM NOT_NAMED 1928-10-17 00:00:00 NR 19.8119 133.789 main 1198 1153 __________P___ -1 19.8119 133.789 2 24 350
1928290N14139 1928 60 WP MM NOT_NAMED 1928-10-17 03:00:00 NR 21.0823 133.648 main 1142 1005 __________P___ -1 21.0823 133.648 2 26 358
1928290N14139 1928 60 WP MM NOT_NAMED 1928-10-17 06:00:00 NR 22.4365 133.707 main 1005 877 __________P___ -1 22.4365 133.707 2 28 7
1928290N14139 1928 60 WP MM NOT_NAMED 1928-10-17 09:00:00 NR 23.8000 134.000 main 867 766 __________O___ -1 23.8000 134.000 2 27 16
1928290N14139 1928 60 WP MM NOT_NAMED 1928-10-17 12:00:00 NR 25.0247 134.500 main 766 688 __________P___ -1 25.0247 134.500 2 27 25
1928290N14139 1928 60 WP MM NOT_NAMED 1928-10-17 15:00:00 NR 26.2473 135.240 main 688 630 __________P___ -1 26.2473 135.240 2 29 31
1928290N14139 1928 60 WP MM NOT_NAMED 1928-10-17 18:00:00 NR 27.4959 136.159 main 636 538 __________P___ -1 27.4959 136.159 2 31 34
1928290N14139 1928 60 WP MM NOT_NAMED 1928-10-17 21:00:00 NR 28.8000 137.200 main 530 417 __________O___ -1 28.8000 137.200 2 33 33
1928290N14139 1928 60 WP MM NOT_NAMED 1928-10-18 00:00:00 NR 30.2552 138.184 main 413 325 __________P___ -1 30.2552 138.184 2 35 31
1928290N14139 1928 60 WP MM NOT_NAMED 1928-10-18 03:00:00 NR 31.7569 139.294 main 315 197 __________P___ -1 31.7569 139.294 2 36 34
1928290N14139 1928 60 WP MM NOT_NAMED 1928-10-18 06:00:00 NR 33.2303 140.557 main 200 148 __________P___ -1 33.2303 140.557 2 36 39
1928290N14139 1928 60 WP MM NOT_NAMED 1928-10-18 09:00:00 NR 34.6000 142.000 main 158 154 __________O___ -1 34.6000 142.000 4 36 45
1928290N14139 1928 60 WP MM NOT_NAMED 1928-10-18 12:00:00 NR 35.8080 143.638 main 243 243 __________P___ -1 35.8080 143.638 4 36 51
1928290N14139 1928 60 WP MM NOT_NAMED 1928-10-18 15:00:00 NR 36.8707 145.444 main 376 376 __________P___ -1 36.8707 145.444 4 36 56
1928290N14139 1928 60 WP MM NOT_NAMED 1928-10-18 18:00:00 NR 37.8228 147.378 main 496 496 __________P___ -1 37.8228 147.378 4 36 60
1928290N14139 1928 60 WP MM NOT_NAMED 1928-10-18 21:00:00 NR 38.7000 149.400 main 597 __________O___ -1 38.7000 149.400 4 36 61

Digital Typhoon Data and Search

About IBTrACS Database

This database is a web-friendly format of International Best Track Archive for Climate Stewardship (IBTrACS), a global best track data archive curated by NOAA dating back to 1842.

Updated: 2021-10-21